Time;durP1;ratioP1;P1;durP2;ratioP2;P2;SDS_P1;SDS_P2;PMS_P1;PMS_P2;Temp;Humidity;BMP_temperature;BMP_pressure;BME280_temperature;BME280_humidity;BME280_pressure;Samples;Min_cycle;Max_cycle;Signal;HPM_P1;HPM_P2
2021/08/06 00:01:12;;;;;;;;;;;23.40;65.00;;;;;;5132328;27;19946;-58
2021/08/06 00:03:39;;;;;;;;;;;23.40;64.80;;;;;;5131859;28;19923;-59
2021/08/06 00:06:06;;;;;;;;;;;23.40;64.80;;;;;;5126216;28;19981;-59
2021/08/06 00:08:34;;;;;;;;;;;23.40;64.90;;;;;;5122918;28;19947;-59
2021/08/06 00:11:02;;;;;;;;;;;23.40;64.90;;;;;;5133670;28;19923;-59
2021/08/06 00:13:29;;;;;;;;;;;23.40;64.90;;;;;;5133345;28;20435;-59
2021/08/06 00:16:00;;;;;;;;;;;23.40;64.80;;;;;;5132187;28;19988;-59
2021/08/06 00:18:27;;;;;;;;;;;23.40;64.70;;;;;;5133607;28;19932;-58
2021/08/06 00:20:54;;;;;;;;;;;23.50;64.90;;;;;;5131406;28;20351;-60
2021/08/06 00:23:22;;;;;;;;;;;23.50;64.80;;;;;;5132083;28;19962;-59
2021/08/06 00:25:49;;;;;;;;;;;23.50;64.80;;;;;;5131067;28;19924;-59
2021/08/06 00:28:16;;;;;;;;;;;23.50;64.90;;;;;;5132456;28;20316;-59
2021/08/06 00:30:43;;;;;;;;;;;23.50;64.80;;;;;;5132211;28;19923;-59
2021/08/06 00:33:10;;;;;;;;;;;23.50;64.80;;;;;;5133380;28;19923;-59
2021/08/06 00:35:37;;;;;;;;;;;23.50;64.70;;;;;;5133317;28;19923;-59
2021/08/06 00:38:04;;;;;;;;;;;23.50;64.70;;;;;;5132149;28;20348;-59
2021/08/06 00:40:31;;;;;;;;;;;23.40;64.60;;;;;;5130615;28;19923;-59
2021/08/06 00:42:58;;;;;;;;;;;23.50;64.70;;;;;;5131905;28;19924;-59
2021/08/06 00:45:25;;;;;;;;;;;23.50;64.70;;;;;;5133048;28;19923;-59
2021/08/06 00:47:52;;;;;;;;;;;23.50;64.60;;;;;;5132388;28;20340;-59
2021/08/06 00:50:19;;;;;;;;;;;23.50;64.60;;;;;;5133922;27;20073;-59
2021/08/06 00:52:46;;;;;;;;;;;23.50;64.60;;;;;;5136672;27;20391;-59
2021/08/06 00:55:13;;;;;;;;;;;23.50;64.60;;;;;;5136719;27;19923;-59
2021/08/06 00:57:40;;;;;;;;;;;23.50;64.50;;;;;;5127534;27;19973;-59
2021/08/06 01:00:08;;;;;;;;;;;23.50;64.50;;;;;;5126640;27;19930;-61
2021/08/06 01:02:45;;;;;;;;;;;23.50;64.50;;;;;;5135618;27;20295;-59
2021/08/06 01:05:17;;;;;;;;;;;23.50;64.40;;;;;;5136512;27;19924;-59
2021/08/06 01:07:47;;;;;;;;;;;23.50;64.40;;;;;;5136630;27;19976;-59
2021/08/06 01:10:16;;;;;;;;;;;23.50;64.30;;;;;;5136898;27;19931;-59
2021/08/06 01:12:49;;;;;;;;;;;23.50;64.30;;;;;;5135255;27;19952;-60
2021/08/06 01:15:17;;;;;;;;;;;23.50;64.30;;;;;;5135350;27;19940;-59
2021/08/06 01:17:45;;;;;;;;;;;23.50;64.20;;;;;;5136764;27;19923;-59
2021/08/06 01:20:15;;;;;;;;;;;23.50;64.20;;;;;;5135237;27;20422;-59
2021/08/06 01:23:03;;;;;;;;;;;23.50;64.20;;;;;;5125554;27;19923;-61
2021/08/06 01:25:39;;;;;;;;;;;23.50;64.30;;;;;;5116868;27;19929;-59
2021/08/06 01:28:06;;;;;;;;;;;23.50;64.20;;;;;;5136181;27;19979;-59
2021/08/06 01:30:33;;;;;;;;;;;23.50;64.30;;;;;;5135104;27;19924;-59
2021/08/06 01:33:00;;;;;;;;;;;23.50;64.30;;;;;;5133820;27;20435;-59
2021/08/06 01:35:27;;;;;;;;;;;23.50;64.30;;;;;;5136268;27;19923;-59
2021/08/06 01:37:54;;;;;;;;;;;23.50;64.30;;;;;;5134878;27;19972;-59
2021/08/06 01:40:21;;;;;;;;;;;23.50;64.30;;;;;;5136235;27;19923;-59
2021/08/06 01:42:51;;;;;;;;;;;23.50;64.20;;;;;;5135836;27;20002;-60
2021/08/06 01:45:20;;;;;;;;;;;23.50;64.30;;;;;;5135831;27;19930;-59
2021/08/06 01:47:49;;;;;;;;;;;23.50;64.30;;;;;;5133605;27;19924;-59
2021/08/06 01:50:19;;;;;;;;;;;23.50;64.40;;;;;;5133922;27;20387;-59
2021/08/06 01:52:54;;;;;;;;;;;23.50;64.30;;;;;;5116550;27;19957;-60
2021/08/06 01:55:21;;;;;;;;;;;23.50;64.20;;;;;;5135939;27;19935;-59
2021/08/06 01:57:49;;;;;;;;;;;23.50;64.30;;;;;;5116230;27;20432;-59
2021/08/06 02:00:16;;;;;;;;;;;23.50;64.30;;;;;;5134388;27;20006;-59
2021/08/06 02:02:44;;;;;;;;;;;23.50;64.30;;;;;;5132665;27;19976;-59
2021/08/06 02:05:11;;;;;;;;;;;23.50;64.30;;;;;;5135617;27;19930;-59
2021/08/06 02:07:40;;;;;;;;;;;23.50;64.20;;;;;;5134610;27;19923;-59
2021/08/06 02:10:07;;;;;;;;;;;23.50;64.20;;;;;;5121843;27;19927;-59
2021/08/06 02:12:34;;;;;;;;;;;23.50;64.20;;;;;;5131619;27;20383;-59
2021/08/06 02:15:02;;;;;;;;;;;23.50;64.20;;;;;;5134284;27;19928;-59
2021/08/06 02:17:30;;;;;;;;;;;23.50;64.20;;;;;;5134140;27;20022;-60
2021/08/06 02:19:58;;;;;;;;;;;23.50;64.20;;;;;;5133921;27;19930;-59
2021/08/06 02:22:25;;;;;;;;;;;23.50;64.20;;;;;;5112147;27;20013;-59
2021/08/06 02:24:53;;;;;;;;;;;23.40;64.00;;;;;;5135333;27;19930;-59
2021/08/06 02:27:21;;;;;;;;;;;23.40;64.00;;;;;;5134966;27;20386;-59
2021/08/06 02:29:49;;;;;;;;;;;23.40;64.10;;;;;;5133979;27;20247;-60
2021/08/06 02:32:16;;;;;;;;;;;23.40;64.00;;;;;;5134104;27;19923;-59
2021/08/06 02:34:43;;;;;;;;;;;23.40;64.10;;;;;;5135165;27;19927;-60
2021/08/06 02:37:10;;;;;;;;;;;23.40;64.10;;;;;;5133897;27;19974;-58
2021/08/06 02:39:36;;;;;;;;;;;23.40;64.10;;;;;;5134891;27;20275;-60
2021/08/06 02:42:04;;;;;;;;;;;23.40;64.10;;;;;;5133256;27;19959;-60
2021/08/06 02:44:35;;;;;;;;;;;23.40;64.10;;;;;;5133536;27;19923;-60
2021/08/06 02:47:03;;;;;;;;;;;23.40;64.30;;;;;;5135043;27;19980;-60
2021/08/06 02:49:33;;;;;;;;;;;23.40;64.10;;;;;;5116488;27;19931;-59
2021/08/06 02:52:01;;;;;;;;;;;23.40;64.20;;;;;;5134611;27;19931;-60
2021/08/06 02:54:28;;;;;;;;;;;23.40;64.10;;;;;;5116557;27;19989;-59
2021/08/06 02:56:55;;;;;;;;;;;23.40;64.10;;;;;;5134336;27;19973;-59
2021/08/06 02:59:22;;;;;;;;;;;23.40;64.00;;;;;;5134824;27;20325;-59
2021/08/06 03:01:49;;;;;;;;;;;23.40;64.10;;;;;;5133847;27;19923;-60
2021/08/06 03:04:16;;;;;;;;;;;23.40;64.00;;;;;;5132847;27;19930;-59
2021/08/06 03:06:43;;;;;;;;;;;23.40;64.00;;;;;;5116232;27;19970;-59
2021/08/06 03:09:10;;;;;;;;;;;23.40;64.10;;;;;;5132327;27;19923;-59
2021/08/06 03:11:37;;;;;;;;;;;23.40;64.10;;;;;;5133320;27;19927;-59
2021/08/06 03:14:04;;;;;;;;;;;23.40;64.00;;;;;;5112843;27;20439;-59
2021/08/06 03:16:32;;;;;;;;;;;23.40;63.90;;;;;;5134094;27;19923;-59
2021/08/06 03:18:59;;;;;;;;;;;23.40;64.00;;;;;;5133959;27;19980;-59
2021/08/06 03:21:26;;;;;;;;;;;23.40;63.90;;;;;;5125648;27;19923;-59
2021/08/06 03:23:53;;;;;;;;;;;23.40;64.00;;;;;;5124417;27;20010;-59
2021/08/06 03:26:20;;;;;;;;;;;23.50;63.90;;;;;;5133819;27;19928;-59
2021/08/06 03:28:47;;;;;;;;;;;23.40;63.90;;;;;;5133752;27;19971;-59
2021/08/06 03:31:14;;;;;;;;;;;23.40;63.90;;;;;;5133920;27;19945;-59
2021/08/06 03:33:41;;;;;;;;;;;23.50;64.00;;;;;;5115607;27;20446;-59
2021/08/06 03:36:10;;;;;;;;;;;23.50;64.00;;;;;;5129527;27;19931;-60
2021/08/06 03:38:37;;;;;;;;;;;23.50;64.10;;;;;;5118820;27;19924;-60
2021/08/06 03:41:04;;;;;;;;;;;23.40;64.00;;;;;;5132257;27;19924;-60
2021/08/06 03:43:31;;;;;;;;;;;23.40;64.00;;;;;;5131280;27;19943;-60
2021/08/06 03:45:57;;;;;;;;;;;23.40;64.10;;;;;;5133966;27;20002;-59
2021/08/06 03:48:24;;;;;;;;;;;23.40;64.10;;;;;;5114595;28;20044;-59
2021/08/06 03:50:51;;;;;;;;;;;23.40;64.20;;;;;;5113438;27;20387;-60
2021/08/06 03:53:18;;;;;;;;;;;23.40;64.20;;;;;;5132666;27;19924;-59
2021/08/06 03:55:45;;;;;;;;;;;23.40;64.10;;;;;;5132736;27;19924;-59
2021/08/06 03:58:12;;;;;;;;;;;23.50;64.20;;;;;;5115273;28;19923;-59
2021/08/06 04:00:39;;;;;;;;;;;23.50;64.10;;;;;;5132312;27;19967;-60
2021/08/06 04:03:06;;;;;;;;;;;23.50;64.10;;;;;;5132335;27;20015;-59
2021/08/06 04:05:34;;;;;;;;;;;23.50;64.00;;;;;;5131091;28;19992;-59
2021/08/06 04:08:05;;;;;;;;;;;23.50;64.00;;;;;;5131077;28;19967;-59
2021/08/06 04:10:32;;;;;;;;;;;23.50;63.90;;;;;;5132656;28;19923;-59
2021/08/06 04:12:59;;;;;;;;;;;23.50;64.00;;;;;;5132643;28;19927;-59
2021/08/06 04:15:27;;;;;;;;;;;23.50;63.90;;;;;;5132377;28;20276;-59
2021/08/06 04:17:54;;;;;;;;;;;23.50;64.00;;;;;;5131869;28;19969;-60
2021/08/06 04:20:21;;;;;;;;;;;23.50;64.00;;;;;;5133689;28;19923;-59
2021/08/06 04:22:48;;;;;;;;;;;23.50;64.10;;;;;;5123666;28;20014;-59
2021/08/06 04:25:15;;;;;;;;;;;23.50;64.00;;;;;;5135324;27;19932;-59
2021/08/06 04:27:42;;;;;;;;;;;23.50;64.00;;;;;;5137540;27;20274;-59
2021/08/06 04:30:10;;;;;;;;;;;23.60;64.20;;;;;;5136284;27;19931;-59
2021/08/06 04:32:37;;;;;;;;;;;23.60;64.20;;;;;;5115144;28;20310;-59
2021/08/06 04:35:05;;;;;;;;;;;23.50;63.90;;;;;;5101865;27;19924;-59
2021/08/06 04:37:32;;;;;;;;;;;23.60;64.10;;;;;;5136319;27;19971;-59
2021/08/06 04:39:58;;;;;;;;;;;23.60;64.00;;;;;;5136554;27;20463;-59
2021/08/06 04:42:26;;;;;;;;;;;23.60;64.10;;;;;;5117769;27;19927;-60
2021/08/06 04:44:53;;;;;;;;;;;23.60;64.10;;;;;;5137095;27;20469;-59
2021/08/06 04:47:20;;;;;;;;;;;23.70;64.10;;;;;;5137198;27;20394;-59
2021/08/06 04:49:47;;;;;;;;;;;23.70;64.20;;;;;;5136548;27;19924;-59
2021/08/06 04:52:14;;;;;;;;;;;23.60;64.00;;;;;;5137287;27;20031;-59
2021/08/06 04:54:41;;;;;;;;;;;23.70;64.00;;;;;;5136013;27;19924;-60
2021/08/06 04:57:08;;;;;;;;;;;23.70;64.10;;;;;;5135180;27;20299;-58
2021/08/06 04:59:34;;;;;;;;;;;23.70;64.00;;;;;;5135818;27;20420;-60
2021/08/06 05:02:03;;;;;;;;;;;23.70;64.00;;;;;;5136483;27;20276;-59
2021/08/06 05:04:30;;;;;;;;;;;23.70;64.00;;;;;;5136804;27;19923;-59
2021/08/06 05:06:57;;;;;;;;;;;23.70;64.10;;;;;;5135512;27;19972;-59
2021/08/06 05:09:24;;;;;;;;;;;23.70;64.00;;;;;;5123270;27;19923;-60
2021/08/06 05:11:52;;;;;;;;;;;23.70;64.00;;;;;;5129622;27;19923;-59
2021/08/06 05:14:18;;;;;;;;;;;23.70;64.10;;;;;;5136368;27;19924;-59
2021/08/06 05:16:46;;;;;;;;;;;23.70;64.10;;;;;;5134954;27;19924;-59
2021/08/06 05:19:13;;;;;;;;;;;23.70;64.00;;;;;;5136473;27;19923;-59
2021/08/06 05:21:40;;;;;;;;;;;23.70;64.00;;;;;;5130158;27;19923;-59
2021/08/06 05:24:07;;;;;;;;;;;23.80;64.20;;;;;;5122896;27;20417;-59
2021/08/06 05:26:34;;;;;;;;;;;23.80;64.10;;;;;;5133517;27;20040;-58
2021/08/06 05:29:03;;;;;;;;;;;23.70;64.00;;;;;;5132242;27;19924;-59
2021/08/06 05:31:30;;;;;;;;;;;23.80;64.10;;;;;;5121524;27;19923;-59
2021/08/06 05:33:57;;;;;;;;;;;23.80;64.10;;;;;;5134001;27;19923;-59
2021/08/06 05:36:24;;;;;;;;;;;23.80;64.10;;;;;;5116378;27;19928;-59
2021/08/06 05:38:51;;;;;;;;;;;23.80;64.00;;;;;;5136360;27;20334;-59
2021/08/06 05:41:18;;;;;;;;;;;23.80;63.90;;;;;;5136497;27;19962;-59
2021/08/06 05:43:45;;;;;;;;;;;23.90;64.00;;;;;;5136279;27;20332;-59
2021/08/06 05:46:12;;;;;;;;;;;23.90;64.10;;;;;;5134516;27;20439;-60
2021/08/06 05:48:39;;;;;;;;;;;23.90;64.20;;;;;;5135288;27;19989;-59
2021/08/06 05:51:06;;;;;;;;;;;23.90;64.10;;;;;;5134413;27;19927;-59
2021/08/06 05:53:33;;;;;;;;;;;23.90;64.00;;;;;;5136066;27;19923;-59
2021/08/06 05:56:00;;;;;;;;;;;23.90;64.00;;;;;;5133024;27;19975;-59
2021/08/06 05:58:27;;;;;;;;;;;23.90;63.80;;;;;;5135918;27;19969;-59
2021/08/06 06:00:54;;;;;;;;;;;23.90;63.80;;;;;;5134904;27;19982;-59
2021/08/06 06:03:21;;;;;;;;;;;24.00;63.80;;;;;;5134550;27;19959;-59
2021/08/06 06:05:48;;;;;;;;;;;24.00;63.80;;;;;;5135360;27;19927;-59
2021/08/06 06:08:15;;;;;;;;;;;24.00;63.80;;;;;;5116520;27;19927;-60
2021/08/06 06:10:43;;;;;;;;;;;24.00;63.80;;;;;;5135831;27;19939;-59
2021/08/06 06:13:10;;;;;;;;;;;24.00;63.70;;;;;;5134062;27;20384;-60
2021/08/06 06:15:37;;;;;;;;;;;24.00;63.70;;;;;;5135486;27;19932;-59
2021/08/06 06:18:04;;;;;;;;;;;24.10;63.80;;;;;;5135533;27;20328;-59
2021/08/06 06:20:31;;;;;;;;;;;24.10;63.80;;;;;;5134520;27;19954;-60
2021/08/06 06:22:59;;;;;;;;;;;24.10;63.60;;;;;;5134722;27;19998;-59
2021/08/06 06:25:26;;;;;;;;;;;24.10;63.60;;;;;;5130981;27;19992;-59
2021/08/06 06:27:53;;;;;;;;;;;24.20;63.60;;;;;;5119577;27;19923;-60
2021/08/06 06:30:22;;;;;;;;;;;24.20;63.60;;;;;;5134506;27;19931;-60
2021/08/06 06:32:49;;;;;;;;;;;24.20;63.50;;;;;;5134089;27;19955;-59
2021/08/06 06:35:16;;;;;;;;;;;24.20;63.40;;;;;;5117226;27;19990;-59
2021/08/06 06:37:43;;;;;;;;;;;24.30;63.50;;;;;;5132837;27;19984;-58
2021/08/06 06:40:11;;;;;;;;;;;24.30;63.40;;;;;;5134318;27;20391;-60
2021/08/06 06:42:38;;;;;;;;;;;24.30;63.40;;;;;;5115840;27;20391;-59
2021/08/06 06:45:06;;;;;;;;;;;24.30;63.40;;;;;;5133923;27;20317;-59
2021/08/06 06:47:40;;;;;;;;;;;24.30;63.40;;;;;;5132925;27;20022;-59
2021/08/06 06:50:09;;;;;;;;;;;24.30;63.50;;;;;;5133246;27;19976;-60
2021/08/06 06:52:37;;;;;;;;;;;24.30;63.50;;;;;;5133230;27;19923;-59
2021/08/06 06:55:05;;;;;;;;;;;24.20;63.60;;;;;;5133004;27;19927;-60
2021/08/06 06:57:32;;;;;;;;;;;24.30;63.70;;;;;;5132104;27;20260;-61
2021/08/06 06:59:59;;;;;;;;;;;24.20;63.90;;;;;;5134655;27;20661;-59
2021/08/06 07:02:26;;;;;;;;;;;24.30;63.90;;;;;;5135045;27;19971;-59
2021/08/06 07:04:53;;;;;;;;;;;24.30;64.20;;;;;;5132716;27;20379;-60
2021/08/06 07:07:21;;;;;;;;;;;24.20;63.90;;;;;;5122395;27;19923;-59
2021/08/06 07:09:48;;;;;;;;;;;24.30;63.70;;;;;;5117512;27;19931;-59
2021/08/06 07:12:15;;;;;;;;;;;24.30;63.80;;;;;;5126117;27;20328;-59
2021/08/06 07:14:42;;;;;;;;;;;24.40;63.90;;;;;;5106819;28;19967;-59
2021/08/06 07:17:09;;;;;;;;;;;24.40;63.80;;;;;;5123001;27;19923;-60
2021/08/06 07:19:38;;;;;;;;;;;24.40;63.60;;;;;;5134316;27;19928;-60
2021/08/06 07:22:05;;;;;;;;;;;24.40;63.50;;;;;;5129760;27;19931;-60
2021/08/06 07:24:32;;;;;;;;;;;24.50;63.20;;;;;;5134307;27;20272;-59
2021/08/06 07:26:59;;;;;;;;;;;24.50;63.20;;;;;;5133219;27;20319;-59
2021/08/06 07:29:26;;;;;;;;;;;24.60;63.00;;;;;;5131698;27;20297;-59
2021/08/06 07:31:53;;;;;;;;;;;24.60;62.50;;;;;;5132744;27;19923;-59
2021/08/06 07:34:20;;;;;;;;;;;24.60;62.70;;;;;;5131577;27;19923;-59
2021/08/06 07:36:47;;;;;;;;;;;24.60;62.60;;;;;;5133606;27;19931;-59
2021/08/06 07:39:14;;;;;;;;;;;24.60;62.50;;;;;;5133740;27;19976;-60
2021/08/06 07:41:41;;;;;;;;;;;24.60;63.00;;;;;;5133188;27;19927;-59
2021/08/06 07:44:08;;;;;;;;;;;24.60;63.00;;;;;;5132686;27;19972;-59
2021/08/06 07:46:35;;;;;;;;;;;24.60;62.90;;;;;;5131501;27;19923;-60
2021/08/06 07:49:02;;;;;;;;;;;24.60;62.80;;;;;;5132485;27;19924;-59
2021/08/06 07:51:29;;;;;;;;;;;24.60;62.40;;;;;;5115466;27;19923;-60
2021/08/06 07:53:56;;;;;;;;;;;24.60;62.70;;;;;;5132496;27;19924;-59
2021/08/06 07:56:23;;;;;;;;;;;24.60;62.50;;;;;;5120186;27;19974;-59
2021/08/06 07:58:50;;;;;;;;;;;24.60;62.50;;;;;;5128322;27;20434;-60
2021/08/06 08:01:17;;;;;;;;;;;24.60;62.70;;;;;;5120780;28;19927;-59
2021/08/06 08:03:44;;;;;;;;;;;24.60;62.30;;;;;;5126739;27;19972;-61
2021/08/06 08:06:11;;;;;;;;;;;24.70;62.40;;;;;;5133370;28;19994;-59
2021/08/06 08:08:39;;;;;;;;;;;24.70;61.70;;;;;;5125558;28;19967;-60
2021/08/06 08:11:06;;;;;;;;;;;24.70;61.90;;;;;;5121486;28;19924;-59
2021/08/06 08:13:32;;;;;;;;;;;24.70;61.50;;;;;;5128089;28;19924;-59
2021/08/06 08:16:00;;;;;;;;;;;24.70;61.20;;;;;;5120346;28;19931;-59
2021/08/06 08:18:27;;;;;;;;;;;24.60;61.70;;;;;;5132464;28;19952;-59
2021/08/06 08:20:54;;;;;;;;;;;24.60;61.50;;;;;;5131568;28;19959;-59
2021/08/06 08:23:21;;;;;;;;;;;24.70;61.60;;;;;;5132141;28;20378;-59
2021/08/06 08:25:54;;;;;;;;;;;24.60;61.10;;;;;;5133488;28;19931;-59
2021/08/06 08:28:22;;;;;;;;;;;24.60;60.70;;;;;;5133485;28;19924;-59
2021/08/06 08:30:49;;;;;;;;;;;24.60;61.10;;;;;;5133500;28;19927;-59
2021/08/06 08:33:17;;;;;;;;;;;24.60;60.70;;;;;;5133521;28;19924;-59
2021/08/06 08:35:44;;;;;;;;;;;24.60;60.30;;;;;;5132029;28;19946;-59
2021/08/06 08:38:14;;;;;;;;;;;24.60;60.60;;;;;;5132238;28;20303;-59
2021/08/06 08:40:41;;;;;;;;;;;24.60;60.70;;;;;;5133093;28;20421;-59
2021/08/06 08:43:08;;;;;;;;;;;24.60;60.40;;;;;;5133357;28;19928;-60
2021/08/06 08:45:40;;;;;;;;;;;24.60;59.70;;;;;;5132209;28;19946;-60
2021/08/06 08:48:08;;;;;;;;;;;24.60;59.90;;;;;;5132856;28;20343;-59
2021/08/06 08:50:36;;;;;;;;;;;24.70;60.20;;;;;;5132922;28;20386;-59
2021/08/06 08:53:04;;;;;;;;;;;24.70;60.30;;;;;;5118346;28;20357;-59
2021/08/06 08:55:31;;;;;;;;;;;24.60;60.60;;;;;;5128561;28;19949;-59
2021/08/06 08:57:58;;;;;;;;;;;24.60;61.10;;;;;;5133004;28;19981;-59
2021/08/06 09:00:25;;;;;;;;;;;24.60;60.00;;;;;;5120918;28;19924;-59
2021/08/06 09:02:52;;;;;;;;;;;24.70;60.10;;;;;;5125854;28;20267;-59
2021/08/06 09:05:23;;;;;;;;;;;24.60;60.20;;;;;;5122871;28;19931;-59
2021/08/06 09:07:51;;;;;;;;;;;24.70;61.30;;;;;;5122953;28;19973;-60
2021/08/06 09:10:21;;;;;;;;;;;24.70;60.60;;;;;;5131576;27;19927;-59
2021/08/06 09:12:53;;;;;;;;;;;24.70;60.50;;;;;;5135932;27;19923;-59
2021/08/06 09:15:40;;;;;;;;;;;24.70;60.80;;;;;;5136405;27;19998;-59
2021/08/06 09:18:25;;;;;;;;;;;24.70;60.10;;;;;;5102843;27;20005;-59
2021/08/06 09:21:06;;;;;;;;;;;24.80;60.40;;;;;;5132552;27;19928;-59
2021/08/06 09:23:54;;;;;;;;;;;24.90;60.30;;;;;;5129329;27;19968;-59
2021/08/06 09:26:27;;;;;;;;;;;24.90;60.60;;;;;;5136794;27;19927;-59
2021/08/06 09:29:04;;;;;;;;;;;24.90;59.90;;;;;;5135012;27;19924;-60
2021/08/06 09:31:33;;;;;;;;;;;24.90;60.00;;;;;;5136551;27;20285;-59
2021/08/06 09:34:16;;;;;;;;;;;24.90;60.00;;;;;;5133929;27;19927;-59
2021/08/06 09:37:00;;;;;;;;;;;25.00;59.60;;;;;;5136102;27;19923;-59
2021/08/06 09:39:34;;;;;;;;;;;25.10;58.90;;;;;;5117347;27;19943;-59
2021/08/06 09:42:06;;;;;;;;;;;25.10;58.60;;;;;;5135100;27;19924;-59
2021/08/06 09:44:33;;;;;;;;;;;25.20;58.60;;;;;;5136013;27;19976;-59
2021/08/06 09:47:14;;;;;;;;;;;25.20;58.50;;;;;;5117996;27;19923;-60
2021/08/06 09:49:43;;;;;;;;;;;25.20;57.60;;;;;;5135363;27;19923;-59
2021/08/06 09:52:10;;;;;;;;;;;25.30;57.70;;;;;;5133334;27;20386;-58
2021/08/06 09:54:37;;;;;;;;;;;25.30;57.80;;;;;;5135989;27;19923;-59
2021/08/06 09:57:04;;;;;;;;;;;25.30;57.50;;;;;;5134121;27;19923;-59
2021/08/06 09:59:33;;;;;;;;;;;25.30;57.50;;;;;;5134192;27;19969;-59
2021/08/06 10:02:09;;;;;;;;;;;25.30;57.50;;;;;;5122397;27;19928;-59
2021/08/06 10:04:37;;;;;;;;;;;25.30;57.30;;;;;;5118729;27;19931;-59
2021/08/06 10:07:04;;;;;;;;;;;25.30;57.30;;;;;;5128886;27;19923;-59
2021/08/06 10:09:31;;;;;;;;;;;25.30;57.20;;;;;;5134573;27;19969;-59
2021/08/06 10:11:58;;;;;;;;;;;25.30;57.40;;;;;;5135822;27;19931;-60
2021/08/06 10:14:25;;;;;;;;;;;25.30;57.60;;;;;;5133256;27;19931;-59
2021/08/06 10:16:53;;;;;;;;;;;25.30;57.80;;;;;;5116441;27;20036;-60
2021/08/06 10:19:21;;;;;;;;;;;25.30;57.80;;;;;;5133044;27;19923;-59
2021/08/06 10:21:48;;;;;;;;;;;25.30;57.90;;;;;;5098290;27;19923;-60
2021/08/06 10:24:16;;;;;;;;;;;25.30;57.60;;;;;;5132589;27;19927;-59
2021/08/06 10:26:47;;;;;;;;;;;25.30;57.50;;;;;;5133581;27;19968;-60
2021/08/06 10:29:18;;;;;;;;;;;25.40;57.30;;;;;;5133828;27;19923;-59
2021/08/06 10:32:05;;;;;;;;;;;25.40;57.10;;;;;;5135308;27;19934;-59
2021/08/06 10:34:32;;;;;;;;;;;25.50;56.80;;;;;;5133468;27;20015;-59
2021/08/06 10:36:59;;;;;;;;;;;25.50;56.20;;;;;;5135200;27;20340;-59
2021/08/06 10:39:26;;;;;;;;;;;25.50;56.10;;;;;;5131033;27;20873;-60
2021/08/06 10:41:53;;;;;;;;;;;25.50;56.10;;;;;;5116592;27;20386;-59
2021/08/06 10:44:20;;;;;;;;;;;25.50;56.10;;;;;;5118756;27;19931;-59
2021/08/06 10:46:54;;;;;;;;;;;25.50;56.00;;;;;;5133652;27;19930;-59
2021/08/06 10:49:21;;;;;;;;;;;25.60;55.30;;;;;;5115261;27;19924;-60
2021/08/06 10:51:48;;;;;;;;;;;25.60;55.50;;;;;;5114535;28;19969;-61
2021/08/06 10:54:26;;;;;;;;;;;25.60;55.30;;;;;;5134652;27;19923;-60
2021/08/06 10:57:12;;;;;;;;;;;25.60;55.00;;;;;;5132766;27;19953;-60
2021/08/06 10:59:40;;;;;;;;;;;25.60;54.40;;;;;;5116516;27;19927;-59
2021/08/06 11:02:26;;;;;;;;;;;25.70;54.70;;;;;;5134097;27;19924;-59
2021/08/06 11:04:54;;;;;;;;;;;25.70;54.70;;;;;;5118379;27;19923;-59
2021/08/06 11:07:33;;;;;;;;;;;25.70;54.80;;;;;;5134725;27;19927;-60
2021/08/06 11:10:01;;;;;;;;;;;25.70;55.10;;;;;;5131633;27;19932;-59
2021/08/06 11:12:30;;;;;;;;;;;25.70;55.20;;;;;;5132437;27;19924;-59
2021/08/06 11:14:58;;;;;;;;;;;25.70;55.20;;;;;;5115536;27;19980;-59
2021/08/06 11:17:41;;;;;;;;;;;25.70;55.20;;;;;;5134171;27;19947;-59
2021/08/06 11:20:09;;;;;;;;;;;25.70;55.40;;;;;;5115498;27;19923;-59
2021/08/06 11:22:46;;;;;;;;;;;25.70;55.40;;;;;;5115789;27;19924;-59
2021/08/06 11:25:17;;;;;;;;;;;25.70;55.60;;;;;;5115848;27;19924;-59
2021/08/06 11:27:44;;;;;;;;;;;25.70;55.70;;;;;;5113942;28;19923;-60
2021/08/06 11:30:11;;;;;;;;;;;25.70;55.60;;;;;;5133519;27;20268;-59
2021/08/06 11:32:50;;;;;;;;;;;25.70;55.50;;;;;;5134157;27;19924;-59
2021/08/06 11:35:19;;;;;;;;;;;25.80;55.70;;;;;;5133384;27;19930;-59
2021/08/06 11:37:48;;;;;;;;;;;25.80;55.80;;;;;;5131531;27;19931;-60
2021/08/06 11:40:15;;;;;;;;;;;25.90;55.70;;;;;;5115791;27;19927;-59
2021/08/06 11:42:45;;;;;;;;;;;25.90;55.70;;;;;;5133324;27;19980;-59
2021/08/06 11:45:14;;;;;;;;;;;25.90;55.50;;;;;;5116194;27;19930;-59
2021/08/06 11:47:47;;;;;;;;;;;26.00;55.40;;;;;;5113055;27;19924;-59
2021/08/06 11:50:15;;;;;;;;;;;26.00;55.10;;;;;;5131473;27;20338;-59
2021/08/06 11:52:46;;;;;;;;;;;26.00;54.70;;;;;;5132485;27;20324;-59
2021/08/06 11:55:16;;;;;;;;;;;26.10;54.80;;;;;;5133431;27;19970;-59
2021/08/06 11:57:45;;;;;;;;;;;26.00;54.70;;;;;;5132051;27;19923;-59
2021/08/06 12:00:23;;;;;;;;;;;26.00;54.90;;;;;;5133440;27;19930;-59
2021/08/06 12:03:05;;;;;;;;;;;26.00;55.00;;;;;;5132675;27;19988;-59
2021/08/06 12:05:33;;;;;;;;;;;26.00;55.10;;;;;;5132346;27;19923;-59
2021/08/06 12:08:19;;;;;;;;;;;26.10;55.00;;;;;;5131420;28;19970;-59
2021/08/06 12:10:47;;;;;;;;;;;26.10;54.80;;;;;;5131604;28;19927;-60
2021/08/06 12:13:17;;;;;;;;;;;26.10;54.80;;;;;;5130798;28;19931;-59
2021/08/06 12:15:44;;;;;;;;;;;26.00;55.30;;;;;;5132780;28;20006;-59
2021/08/06 12:18:19;;;;;;;;;;;26.00;54.80;;;;;;5133317;28;20408;-59
2021/08/06 12:20:48;;;;;;;;;;;26.00;54.70;;;;;;5130358;28;19923;-59
2021/08/06 12:23:15;;;;;;;;;;;26.10;54.70;;;;;;5132367;28;19923;-59
2021/08/06 12:26:01;;;;;;;;;;;26.10;54.70;;;;;;5133275;28;19973;-60
2021/08/06 12:28:28;;;;;;;;;;;26.00;54.60;;;;;;5118838;28;20022;-59
2021/08/06 12:31:07;;;;;;;;;;;26.00;54.70;;;;;;5128880;28;20332;-59
2021/08/06 12:33:34;;;;;;;;;;;26.00;54.80;;;;;;5133523;28;19978;-60
2021/08/06 12:36:08;;;;;;;;;;;26.00;54.90;;;;;;5133491;28;20263;-59
2021/08/06 12:38:35;;;;;;;;;;;26.00;55.20;;;;;;5133199;28;19923;-59
2021/08/06 12:41:02;;;;;;;;;;;26.00;55.40;;;;;;5122132;28;20383;-60
2021/08/06 12:43:29;;;;;;;;;;;26.00;55.40;;;;;;5126324;28;19923;-60
2021/08/06 12:46:09;;;;;;;;;;;26.00;55.40;;;;;;5115345;27;19969;-59
2021/08/06 12:48:46;;;;;;;;;;;26.00;55.20;;;;;;5135604;27;19969;-60
2021/08/06 12:51:17;;;;;;;;;;;26.00;54.80;;;;;;5135692;27;20370;-59
2021/08/06 12:53:44;;;;;;;;;;;26.00;54.70;;;;;;5134201;27;19983;-59
2021/08/06 12:56:11;;;;;;;;;;;26.00;54.50;;;;;;5135071;27;19930;-59
2021/08/06 12:58:38;;;;;;;;;;;26.00;54.70;;;;;;5136724;27;19968;-59
2021/08/06 13:01:05;;;;;;;;;;;26.00;54.60;;;;;;5134734;27;20413;-59
2021/08/06 13:03:42;;;;;;;;;;;26.00;54.60;;;;;;5136830;27;19988;-59
2021/08/06 13:06:10;;;;;;;;;;;26.00;54.90;;;;;;5136968;27;20354;-59
2021/08/06 13:08:40;;;;;;;;;;;26.00;54.80;;;;;;5137046;27;19924;-59
2021/08/06 13:11:09;;;;;;;;;;;26.00;55.00;;;;;;5136506;27;19927;-60
2021/08/06 13:13:38;;;;;;;;;;;25.90;55.20;;;;;;5134580;27;19927;-59
2021/08/06 13:16:05;;;;;;;;;;;25.90;55.30;;;;;;5136595;27;19972;-59
2021/08/06 13:18:32;;;;;;;;;;;25.90;55.30;;;;;;5118667;27;20286;-59
2021/08/06 13:20:59;;;;;;;;;;;25.90;55.40;;;;;;5131772;27;19927;-59
2021/08/06 13:23:26;;;;;;;;;;;25.80;55.40;;;;;;5120182;27;19931;-59
2021/08/06 13:25:53;;;;;;;;;;;25.80;55.40;;;;;;5135899;27;19923;-59
2021/08/06 13:28:20;;;;;;;;;;;25.80;55.00;;;;;;5134254;27;19997;-60
2021/08/06 13:30:47;;;;;;;;;;;25.80;55.20;;;;;;5098271;28;19973;-59
2021/08/06 13:33:14;;;;;;;;;;;25.80;55.20;;;;;;5135065;27;19967;-59
2021/08/06 13:35:41;;;;;;;;;;;25.80;55.00;;;;;;5134408;27;19968;-60
2021/08/06 13:38:09;;;;;;;;;;;25.80;55.00;;;;;;5136631;27;19923;-59
2021/08/06 13:40:36;;;;;;;;;;;25.80;55.00;;;;;;5135099;27;20355;-59
2021/08/06 13:43:04;;;;;;;;;;;25.80;55.00;;;;;;5136074;27;19924;-59
2021/08/06 13:45:31;;;;;;;;;;;25.80;55.10;;;;;;5134618;27;19932;-60
2021/08/06 13:47:58;;;;;;;;;;;25.70;55.10;;;;;;5135883;27;19973;-59
2021/08/06 13:50:25;;;;;;;;;;;25.80;55.20;;;;;;5134632;27;19930;-60
2021/08/06 13:52:52;;;;;;;;;;;25.80;55.30;;;;;;5136137;27;19953;-59
2021/08/06 13:55:20;;;;;;;;;;;25.80;55.30;;;;;;5132941;27;20374;-59
2021/08/06 13:57:47;;;;;;;;;;;25.70;55.40;;;;;;5135350;27;19923;-59
2021/08/06 14:00:15;;;;;;;;;;;25.70;55.40;;;;;;5134389;27;19923;-60
2021/08/06 14:02:43;;;;;;;;;;;25.70;55.60;;;;;;5135867;27;19946;-59
2021/08/06 14:05:11;;;;;;;;;;;25.70;55.60;;;;;;5135661;27;19931;-60
2021/08/06 14:07:38;;;;;;;;;;;25.70;55.80;;;;;;5135513;27;19923;-59
2021/08/06 14:10:06;;;;;;;;;;;25.70;55.90;;;;;;5135557;27;19923;-59
2021/08/06 14:12:33;;;;;;;;;;;25.60;55.70;;;;;;5132037;27;19924;-60
2021/08/06 14:15:00;;;;;;;;;;;25.60;55.70;;;;;;5119872;27;19932;-60
2021/08/06 14:17:27;;;;;;;;;;;25.70;55.70;;;;;;5135380;27;19923;-59
2021/08/06 14:19:54;;;;;;;;;;;25.60;55.40;;;;;;5135079;27;20010;-59
2021/08/06 14:22:22;;;;;;;;;;;25.60;55.50;;;;;;5127862;27;19924;-59
2021/08/06 14:24:49;;;;;;;;;;;25.60;55.60;;;;;;5116253;27;19923;-60